sensor_id;sensor_type;location;lat;lon;timestamp;temperature;humidity
28374;DHT22;15616;40.148;-102.718;2022-08-01T00:01:57;25.00;53.50
28374;DHT22;15616;40.148;-102.718;2022-08-01T00:04:23;25.00;53.50
28374;DHT22;15616;40.148;-102.718;2022-08-01T00:06:49;25.00;53.60
28374;DHT22;15616;40.148;-102.718;2022-08-01T00:09:15;25.00;53.60
28374;DHT22;15616;40.148;-102.718;2022-08-01T00:11:40;25.00;53.60
28374;DHT22;15616;40.148;-102.718;2022-08-01T00:14:07;25.00;53.70
28374;DHT22;15616;40.148;-102.718;2022-08-01T00:16:35;25.00;53.70
28374;DHT22;15616;40.148;-102.718;2022-08-01T00:19:01;25.00;53.80
28374;DHT22;15616;40.148;-102.718;2022-08-01T00:21:27;25.00;53.70
28374;DHT22;15616;40.148;-102.718;2022-08-01T00:23:53;25.00;53.70
28374;DHT22;15616;40.148;-102.718;2022-08-01T00:26:19;25.00;53.70
28374;DHT22;15616;40.148;-102.718;2022-08-01T00:28:45;25.00;53.70
28374;DHT22;15616;40.148;-102.718;2022-08-01T00:31:11;25.00;53.80
28374;DHT22;15616;40.148;-102.718;2022-08-01T00:33:37;25.00;53.80
28374;DHT22;15616;40.148;-102.718;2022-08-01T00:36:03;25.00;53.80
28374;DHT22;15616;40.148;-102.718;2022-08-01T00:38:29;25.00;53.70
28374;DHT22;15616;40.148;-102.718;2022-08-01T00:40:55;25.00;53.70
28374;DHT22;15616;40.148;-102.718;2022-08-01T00:43:21;25.00;53.70
28374;DHT22;15616;40.148;-102.718;2022-08-01T00:45:47;25.00;53.70
28374;DHT22;15616;40.148;-102.718;2022-08-01T00:48:13;25.00;53.70
28374;DHT22;15616;40.148;-102.718;2022-08-01T00:50:39;25.00;53.70
28374;DHT22;15616;40.148;-102.718;2022-08-01T00:53:05;25.00;53.80
28374;DHT22;15616;40.148;-102.718;2022-08-01T00:55:31;25.00;53.70
28374;DHT22;15616;40.148;-102.718;2022-08-01T00:57:58;24.90;53.60
28374;DHT22;15616;40.148;-102.718;2022-08-01T01:00:24;25.00;53.70
28374;DHT22;15616;40.148;-102.718;2022-08-01T01:02:50;25.00;53.70
28374;DHT22;15616;40.148;-102.718;2022-08-01T01:05:17;25.00;53.60
28374;DHT22;15616;40.148;-102.718;2022-08-01T01:08:06;25.00;53.60
28374;DHT22;15616;40.148;-102.718;2022-08-01T01:10:45;25.00;53.60
28374;DHT22;15616;40.148;-102.718;2022-08-01T01:13:32;25.00;53.70
28374;DHT22;15616;40.148;-102.718;2022-08-01T01:16:02;25.00;53.60
28374;DHT22;15616;40.148;-102.718;2022-08-01T01:18:37;25.00;53.70
28374;DHT22;15616;40.148;-102.718;2022-08-01T01:23:51;25.00;53.70
28374;DHT22;15616;40.148;-102.718;2022-08-01T01:29:11;25.00;53.70
28374;DHT22;15616;40.148;-102.718;2022-08-01T01:31:49;25.00;53.70
28374;DHT22;15616;40.148;-102.718;2022-08-01T01:34:18;25.00;53.70
28374;DHT22;15616;40.148;-102.718;2022-08-01T01:36:46;25.00;53.70
28374;DHT22;15616;40.148;-102.718;2022-08-01T01:39:14;25.00;53.70
28374;DHT22;15616;40.148;-102.718;2022-08-01T01:41:42;25.00;53.70
28374;DHT22;15616;40.148;-102.718;2022-08-01T01:44:10;25.00;53.70
28374;DHT22;15616;40.148;-102.718;2022-08-01T01:46:37;25.00;53.70
28374;DHT22;15616;40.148;-102.718;2022-08-01T01:49:05;25.00;53.60
28374;DHT22;15616;40.148;-102.718;2022-08-01T01:51:35;25.00;53.60
28374;DHT22;15616;40.148;-102.718;2022-08-01T01:54:04;25.00;53.70
28374;DHT22;15616;40.148;-102.718;2022-08-01T01:56:31;25.00;53.70
28374;DHT22;15616;40.148;-102.718;2022-08-01T01:59:00;25.00;53.70
28374;DHT22;15616;40.148;-102.718;2022-08-01T02:01:29;25.00;53.60
28374;DHT22;15616;40.148;-102.718;2022-08-01T02:03:56;25.00;53.60
28374;DHT22;15616;40.148;-102.718;2022-08-01T02:06:24;25.00;53.70
28374;DHT22;15616;40.148;-102.718;2022-08-01T02:08:53;24.90;53.60
28374;DHT22;15616;40.148;-102.718;2022-08-01T02:11:21;25.00;53.70
28374;DHT22;15616;40.148;-102.718;2022-08-01T02:14:01;24.90;53.70
28374;DHT22;15616;40.148;-102.718;2022-08-01T02:16:29;24.90;53.70
28374;DHT22;15616;40.148;-102.718;2022-08-01T02:18:57;24.90;53.70
28374;DHT22;15616;40.148;-102.718;2022-08-01T02:21:55;24.90;53.80
28374;DHT22;15616;40.148;-102.718;2022-08-01T02:24:49;24.90;53.70
28374;DHT22;15616;40.148;-102.718;2022-08-01T02:27:20;25.00;53.80
28374;DHT22;15616;40.148;-102.718;2022-08-01T02:29:59;24.90;53.70
28374;DHT22;15616;40.148;-102.718;2022-08-01T02:32:31;24.90;53.70
28374;DHT22;15616;40.148;-102.718;2022-08-01T02:35:00;24.90;53.70
28374;DHT22;15616;40.148;-102.718;2022-08-01T02:37:31;24.90;53.70
28374;DHT22;15616;40.148;-102.718;2022-08-01T02:39:59;24.90;53.70
28374;DHT22;15616;40.148;-102.718;2022-08-01T02:42:27;24.90;53.70
28374;DHT22;15616;40.148;-102.718;2022-08-01T02:44:56;24.90;53.70
28374;DHT22;15616;40.148;-102.718;2022-08-01T02:47:24;24.90;53.70
28374;DHT22;15616;40.148;-102.718;2022-08-01T02:49:52;24.90;53.70
28374;DHT22;15616;40.148;-102.718;2022-08-01T02:52:19;24.90;53.70
28374;DHT22;15616;40.148;-102.718;2022-08-01T02:54:51;24.90;53.70
28374;DHT22;15616;40.148;-102.718;2022-08-01T02:57:18;24.90;53.70
28374;DHT22;15616;40.148;-102.718;2022-08-01T02:59:46;24.90;53.70
28374;DHT22;15616;40.148;-102.718;2022-08-01T03:02:14;24.90;53.80
28374;DHT22;15616;40.148;-102.718;2022-08-01T03:04:41;24.90;53.80
28374;DHT22;15616;40.148;-102.718;2022-08-01T03:07:09;24.90;53.80
28374;DHT22;15616;40.148;-102.718;2022-08-01T03:09:41;24.90;53.70
28374;DHT22;15616;40.148;-102.718;2022-08-01T03:12:15;25.00;53.70
28374;DHT22;15616;40.148;-102.718;2022-08-01T03:14:43;24.90;53.70
28374;DHT22;15616;40.148;-102.718;2022-08-01T03:17:10;24.90;53.70
28374;DHT22;15616;40.148;-102.718;2022-08-01T03:19:38;24.90;54.00
28374;DHT22;15616;40.148;-102.718;2022-08-01T03:22:08;24.90;54.00
28374;DHT22;15616;40.148;-102.718;2022-08-01T03:24:36;24.90;53.90
28374;DHT22;15616;40.148;-102.718;2022-08-01T03:27:04;24.90;53.90
28374;DHT22;15616;40.148;-102.718;2022-08-01T03:29:32;24.90;53.90
28374;DHT22;15616;40.148;-102.718;2022-08-01T03:32:00;24.90;53.80
28374;DHT22;15616;40.148;-102.718;2022-08-01T03:34:26;24.90;53.90
28374;DHT22;15616;40.148;-102.718;2022-08-01T03:37:06;24.90;54.00
28374;DHT22;15616;40.148;-102.718;2022-08-01T03:39:40;25.00;54.00
28374;DHT22;15616;40.148;-102.718;2022-08-01T03:42:14;24.90;54.00
28374;DHT22;15616;40.148;-102.718;2022-08-01T03:44:48;24.90;54.70
28374;DHT22;15616;40.148;-102.718;2022-08-01T03:47:19;24.90;54.00
28374;DHT22;15616;40.148;-102.718;2022-08-01T03:49:48;24.90;54.00
28374;DHT22;15616;40.148;-102.718;2022-08-01T03:52:16;24.90;54.00
28374;DHT22;15616;40.148;-102.718;2022-08-01T03:54:51;24.90;54.10
28374;DHT22;15616;40.148;-102.718;2022-08-01T03:57:19;24.90;53.90
28374;DHT22;15616;40.148;-102.718;2022-08-01T03:59:46;24.90;53.90
28374;DHT22;15616;40.148;-102.718;2022-08-01T04:02:13;24.90;53.90
28374;DHT22;15616;40.148;-102.718;2022-08-01T04:04:41;24.90;53.80
28374;DHT22;15616;40.148;-102.718;2022-08-01T04:07:22;24.90;53.80
28374;DHT22;15616;40.148;-102.718;2022-08-01T04:09:49;24.90;53.80
28374;DHT22;15616;40.148;-102.718;2022-08-01T04:12:15;24.90;53.90
28374;DHT22;15616;40.148;-102.718;2022-08-01T04:14:40;24.90;53.80
28374;DHT22;15616;40.148;-102.718;2022-08-01T04:17:06;24.90;53.80
28374;DHT22;15616;40.148;-102.718;2022-08-01T04:19:35;24.90;53.90
28374;DHT22;15616;40.148;-102.718;2022-08-01T04:22:01;24.90;53.80
28374;DHT22;15616;40.148;-102.718;2022-08-01T04:24:28;24.90;53.80
28374;DHT22;15616;40.148;-102.718;2022-08-01T04:26:58;24.90;53.70
28374;DHT22;15616;40.148;-102.718;2022-08-01T04:29:25;24.90;53.80
28374;DHT22;15616;40.148;-102.718;2022-08-01T04:31:54;24.90;53.70
28374;DHT22;15616;40.148;-102.718;2022-08-01T04:34:24;24.90;53.70
28374;DHT22;15616;40.148;-102.718;2022-08-01T04:36:52;24.90;53.70
28374;DHT22;15616;40.148;-102.718;2022-08-01T04:39:20;24.90;53.70
28374;DHT22;15616;40.148;-102.718;2022-08-01T04:41:49;24.90;53.70
28374;DHT22;15616;40.148;-102.718;2022-08-01T04:44:16;24.90;53.80
28374;DHT22;15616;40.148;-102.718;2022-08-01T04:46:42;24.90;53.70
28374;DHT22;15616;40.148;-102.718;2022-08-01T04:49:10;24.90;53.70
28374;DHT22;15616;40.148;-102.718;2022-08-01T04:51:48;24.90;53.70
28374;DHT22;15616;40.148;-102.718;2022-08-01T04:54:16;24.90;53.70
28374;DHT22;15616;40.148;-102.718;2022-08-01T04:56:42;24.90;53.80
28374;DHT22;15616;40.148;-102.718;2022-08-01T04:59:08;24.90;53.90
28374;DHT22;15616;40.148;-102.718;2022-08-01T05:01:52;24.90;54.00
28374;DHT22;15616;40.148;-102.718;2022-08-01T05:04:18;24.90;54.00
28374;DHT22;15616;40.148;-102.718;2022-08-01T05:06:44;24.90;54.00
28374;DHT22;15616;40.148;-102.718;2022-08-01T05:09:10;24.90;54.00
28374;DHT22;15616;40.148;-102.718;2022-08-01T05:11:36;24.90;54.00
28374;DHT22;15616;40.148;-102.718;2022-08-01T05:14:02;24.90;54.00
28374;DHT22;15616;40.148;-102.718;2022-08-01T05:16:28;24.90;54.10
28374;DHT22;15616;40.148;-102.718;2022-08-01T05:18:54;24.90;54.10
28374;DHT22;15616;40.148;-102.718;2022-08-01T05:21:20;24.90;54.10
28374;DHT22;15616;40.148;-102.718;2022-08-01T05:23:46;24.90;54.20
28374;DHT22;15616;40.148;-102.718;2022-08-01T05:26:12;24.90;54.30
28374;DHT22;15616;40.148;-102.718;2022-08-01T05:28:39;24.90;54.40
28374;DHT22;15616;40.148;-102.718;2022-08-01T05:31:05;24.90;54.40
28374;DHT22;15616;40.148;-102.718;2022-08-01T05:33:31;24.90;54.40
28374;DHT22;15616;40.148;-102.718;2022-08-01T05:35:57;24.90;54.40
28374;DHT22;15616;40.148;-102.718;2022-08-01T05:38:23;24.90;54.40
28374;DHT22;15616;40.148;-102.718;2022-08-01T05:40:49;24.90;54.40
28374;DHT22;15616;40.148;-102.718;2022-08-01T05:43:15;24.80;54.40
28374;DHT22;15616;40.148;-102.718;2022-08-01T05:45:41;24.80;54.40
28374;DHT22;15616;40.148;-102.718;2022-08-01T05:48:07;24.80;54.40
28374;DHT22;15616;40.148;-102.718;2022-08-01T05:50:33;24.80;54.40
28374;DHT22;15616;40.148;-102.718;2022-08-01T05:52:59;24.80;54.40
28374;DHT22;15616;40.148;-102.718;2022-08-01T05:55:25;24.80;54.50
28374;DHT22;15616;40.148;-102.718;2022-08-01T05:57:51;24.80;54.50
28374;DHT22;15616;40.148;-102.718;2022-08-01T06:00:17;24.80;54.60
28374;DHT22;15616;40.148;-102.718;2022-08-01T06:02:43;24.80;54.50
28374;DHT22;15616;40.148;-102.718;2022-08-01T06:05:09;24.80;54.60
28374;DHT22;15616;40.148;-102.718;2022-08-01T06:07:35;24.80;54.60
28374;DHT22;15616;40.148;-102.718;2022-08-01T06:10:02;24.90;54.70
28374;DHT22;15616;40.148;-102.718;2022-08-01T06:12:28;24.90;54.70
28374;DHT22;15616;40.148;-102.718;2022-08-01T06:14:54;24.90;54.70
28374;DHT22;15616;40.148;-102.718;2022-08-01T06:17:20;24.90;54.80
28374;DHT22;15616;40.148;-102.718;2022-08-01T06:19:46;24.90;54.90
28374;DHT22;15616;40.148;-102.718;2022-08-01T06:22:12;24.90;55.00
28374;DHT22;15616;40.148;-102.718;2022-08-01T06:24:37;24.90;55.00
28374;DHT22;15616;40.148;-102.718;2022-08-01T06:27:03;24.90;55.10
28374;DHT22;15616;40.148;-102.718;2022-08-01T06:29:32;24.90;55.20
28374;DHT22;15616;40.148;-102.718;2022-08-01T06:31:59;24.90;55.30
28374;DHT22;15616;40.148;-102.718;2022-08-01T06:34:25;24.90;55.30
28374;DHT22;15616;40.148;-102.718;2022-08-01T06:36:51;24.90;55.40
28374;DHT22;15616;40.148;-102.718;2022-08-01T06:39:17;24.90;55.40
28374;DHT22;15616;40.148;-102.718;2022-08-01T06:41:43;25.00;55.60
28374;DHT22;15616;40.148;-102.718;2022-08-01T06:44:12;24.90;55.60
28374;DHT22;15616;40.148;-102.718;2022-08-01T06:46:38;25.00;55.70
28374;DHT22;15616;40.148;-102.718;2022-08-01T06:49:04;24.90;55.60
28374;DHT22;15616;40.148;-102.718;2022-08-01T06:51:30;24.90;55.60
28374;DHT22;15616;40.148;-102.718;2022-08-01T06:53:56;24.90;55.70
28374;DHT22;15616;40.148;-102.718;2022-08-01T06:56:22;24.90;55.80
28374;DHT22;15616;40.148;-102.718;2022-08-01T06:58:49;24.90;55.80
28374;DHT22;15616;40.148;-102.718;2022-08-01T07:01:16;24.90;55.90
28374;DHT22;15616;40.148;-102.718;2022-08-01T07:03:42;24.90;56.00
28374;DHT22;15616;40.148;-102.718;2022-08-01T07:06:07;24.90;55.90
28374;DHT22;15616;40.148;-102.718;2022-08-01T07:08:37;24.90;55.90
28374;DHT22;15616;40.148;-102.718;2022-08-01T07:11:03;25.00;55.90
28374;DHT22;15616;40.148;-102.718;2022-08-01T07:13:29;25.00;55.90
28374;DHT22;15616;40.148;-102.718;2022-08-01T07:15:57;25.00;55.90
28374;DHT22;15616;40.148;-102.718;2022-08-01T07:18:23;25.00;55.80
28374;DHT22;15616;40.148;-102.718;2022-08-01T07:20:49;25.00;55.80
28374;DHT22;15616;40.148;-102.718;2022-08-01T07:23:15;25.00;55.80
28374;DHT22;15616;40.148;-102.718;2022-08-01T07:25:41;25.00;55.70
28374;DHT22;15616;40.148;-102.718;2022-08-01T07:28:08;25.00;55.70
28374;DHT22;15616;40.148;-102.718;2022-08-01T07:30:34;25.00;55.70
28374;DHT22;15616;40.148;-102.718;2022-08-01T07:33:01;25.00;55.70
28374;DHT22;15616;40.148;-102.718;2022-08-01T07:35:27;25.00;55.70
28374;DHT22;15616;40.148;-102.718;2022-08-01T07:37:53;25.00;55.60
28374;DHT22;15616;40.148;-102.718;2022-08-01T07:40:19;25.00;55.60
28374;DHT22;15616;40.148;-102.718;2022-08-01T07:42:46;25.00;55.60
28374;DHT22;15616;40.148;-102.718;2022-08-01T07:45:13;25.00;55.60
28374;DHT22;15616;40.148;-102.718;2022-08-01T07:47:39;25.00;55.60
28374;DHT22;15616;40.148;-102.718;2022-08-01T07:50:06;25.00;55.60
28374;DHT22;15616;40.148;-102.718;2022-08-01T07:52:32;25.00;55.60
28374;DHT22;15616;40.148;-102.718;2022-08-01T07:54:58;25.10;55.60
28374;DHT22;15616;40.148;-102.718;2022-08-01T07:57:24;25.10;55.60
28374;DHT22;15616;40.148;-102.718;2022-08-01T07:59:51;25.10;55.40
28374;DHT22;15616;40.148;-102.718;2022-08-01T08:02:17;25.10;55.40
28374;DHT22;15616;40.148;-102.718;2022-08-01T08:04:43;25.20;55.30
28374;DHT22;15616;40.148;-102.718;2022-08-01T08:07:09;25.20;55.30
28374;DHT22;15616;40.148;-102.718;2022-08-01T08:09:35;25.20;55.30
28374;DHT22;15616;40.148;-102.718;2022-08-01T08:12:01;25.20;55.20
28374;DHT22;15616;40.148;-102.718;2022-08-01T08:14:27;25.20;55.20
28374;DHT22;15616;40.148;-102.718;2022-08-01T08:16:53;25.20;55.10
28374;DHT22;15616;40.148;-102.718;2022-08-01T08:19:18;25.30;55.10
28374;DHT22;15616;40.148;-102.718;2022-08-01T08:21:44;25.30;55.00
28374;DHT22;15616;40.148;-102.718;2022-08-01T08:24:10;25.30;54.90
28374;DHT22;15616;40.148;-102.718;2022-08-01T08:26:46;25.30;54.80
28374;DHT22;15616;40.148;-102.718;2022-08-01T08:29:12;25.30;54.80
28374;DHT22;15616;40.148;-102.718;2022-08-01T08:31:38;25.30;54.90
28374;DHT22;15616;40.148;-102.718;2022-08-01T08:34:04;25.30;54.90
28374;DHT22;15616;40.148;-102.718;2022-08-01T08:36:30;25.40;54.90
28374;DHT22;15616;40.148;-102.718;2022-08-01T08:38:56;25.40;54.80
28374;DHT22;15616;40.148;-102.718;2022-08-01T08:41:22;25.40;54.70
28374;DHT22;15616;40.148;-102.718;2022-08-01T08:43:48;25.40;54.70
28374;DHT22;15616;40.148;-102.718;2022-08-01T08:46:14;25.40;54.60
28374;DHT22;15616;40.148;-102.718;2022-08-01T08:48:42;25.40;54.50
28374;DHT22;15616;40.148;-102.718;2022-08-01T08:51:10;25.40;54.50
28374;DHT22;15616;40.148;-102.718;2022-08-01T08:53:40;25.50;54.50
28374;DHT22;15616;40.148;-102.718;2022-08-01T08:56:11;25.40;54.50
28374;DHT22;15616;40.148;-102.718;2022-08-01T08:58:37;25.40;54.50
28374;DHT22;15616;40.148;-102.718;2022-08-01T09:01:07;25.40;54.50
28374;DHT22;15616;40.148;-102.718;2022-08-01T09:03:34;25.40;54.50
28374;DHT22;15616;40.148;-102.718;2022-08-01T09:06:00;25.40;54.40
28374;DHT22;15616;40.148;-102.718;2022-08-01T09:08:26;25.40;54.50
28374;DHT22;15616;40.148;-102.718;2022-08-01T09:10:52;25.40;54.50
28374;DHT22;15616;40.148;-102.718;2022-08-01T09:13:18;25.40;54.50
28374;DHT22;15616;40.148;-102.718;2022-08-01T09:15:50;25.40;54.50
28374;DHT22;15616;40.148;-102.718;2022-08-01T09:18:40;25.40;54.50
28374;DHT22;15616;40.148;-102.718;2022-08-01T09:24:00;25.40;54.70
28374;DHT22;15616;40.148;-102.718;2022-08-01T09:26:35;25.50;54.60
28374;DHT22;15616;40.148;-102.718;2022-08-01T09:29:06;25.50;54.50
28374;DHT22;15616;40.148;-102.718;2022-08-01T09:31:41;25.50;54.40
28374;DHT22;15616;40.148;-102.718;2022-08-01T09:34:10;25.60;54.50
28374;DHT22;15616;40.148;-102.718;2022-08-01T09:36:54;25.60;54.40
28374;DHT22;15616;40.148;-102.718;2022-08-01T09:39:24;25.60;54.30
28374;DHT22;15616;40.148;-102.718;2022-08-01T09:41:50;25.50;54.30
28374;DHT22;15616;40.148;-102.718;2022-08-01T09:44:17;25.50;54.30
28374;DHT22;15616;40.148;-102.718;2022-08-01T09:46:52;25.50;54.30
28374;DHT22;15616;40.148;-102.718;2022-08-01T09:49:31;25.50;54.30
28374;DHT22;15616;40.148;-102.718;2022-08-01T09:51:58;25.50;54.30
28374;DHT22;15616;40.148;-102.718;2022-08-01T09:54:30;25.50;54.40
28374;DHT22;15616;40.148;-102.718;2022-08-01T09:57:11;25.50;54.40
28374;DHT22;15616;40.148;-102.718;2022-08-01T09:59:39;25.50;55.20
28374;DHT22;15616;40.148;-102.718;2022-08-01T10:02:12;25.50;54.50
28374;DHT22;15616;40.148;-102.718;2022-08-01T10:04:51;25.50;54.60
28374;DHT22;15616;40.148;-102.718;2022-08-01T10:07:18;25.50;54.50
28374;DHT22;15616;40.148;-102.718;2022-08-01T10:09:45;25.40;54.60
28374;DHT22;15616;40.148;-102.718;2022-08-01T10:12:19;25.40;54.60
28374;DHT22;15616;40.148;-102.718;2022-08-01T10:14:47;25.50;54.50
28374;DHT22;15616;40.148;-102.718;2022-08-01T10:17:19;25.50;54.50
28374;DHT22;15616;40.148;-102.718;2022-08-01T10:19:46;25.40;55.10
28374;DHT22;15616;40.148;-102.718;2022-08-01T10:22:13;25.50;54.50
28374;DHT22;15616;40.148;-102.718;2022-08-01T10:24:45;25.50;54.50
28374;DHT22;15616;40.148;-102.718;2022-08-01T10:27:15;25.50;54.50
28374;DHT22;15616;40.148;-102.718;2022-08-01T10:32:09;25.50;54.40
28374;DHT22;15616;40.148;-102.718;2022-08-01T10:34:37;25.50;54.40
28374;DHT22;15616;40.148;-102.718;2022-08-01T10:37:05;25.50;54.40
28374;DHT22;15616;40.148;-102.718;2022-08-01T10:39:32;25.50;54.50
28374;DHT22;15616;40.148;-102.718;2022-08-01T10:41:59;25.50;54.50
28374;DHT22;15616;40.148;-102.718;2022-08-01T10:44:28;25.50;54.50
28374;DHT22;15616;40.148;-102.718;2022-08-01T10:47:03;25.50;54.30
28374;DHT22;15616;40.148;-102.718;2022-08-01T10:49:33;25.50;54.20
28374;DHT22;15616;40.148;-102.718;2022-08-01T10:52:01;25.50;54.20
28374;DHT22;15616;40.148;-102.718;2022-08-01T10:54:26;25.50;54.20
28374;DHT22;15616;40.148;-102.718;2022-08-01T10:56:53;25.50;54.20
28374;DHT22;15616;40.148;-102.718;2022-08-01T10:59:26;25.50;54.20
28374;DHT22;15616;40.148;-102.718;2022-08-01T11:02:01;25.60;54.20
28374;DHT22;15616;40.148;-102.718;2022-08-01T11:04:51;25.60;54.20
28374;DHT22;15616;40.148;-102.718;2022-08-01T11:07:18;25.50;54.20
28374;DHT22;15616;40.148;-102.718;2022-08-01T11:09:47;25.50;54.20
28374;DHT22;15616;40.148;-102.718;2022-08-01T11:12:16;25.50;54.10
28374;DHT22;15616;40.148;-102.718;2022-08-01T11:17:40;25.60;53.80
28374;DHT22;15616;40.148;-102.718;2022-08-01T11:20:18;25.60;53.80
28374;DHT22;15616;40.148;-102.718;2022-08-01T11:28:28;25.60;53.90
28374;DHT22;15616;40.148;-102.718;2022-08-01T11:33:48;25.60;53.70
28374;DHT22;15616;40.148;-102.718;2022-08-01T11:38:49;25.60;53.70
28374;DHT22;15616;40.148;-102.718;2022-08-01T11:44:00;25.60;53.70
28374;DHT22;15616;40.148;-102.718;2022-08-01T11:46:49;25.70;53.60
28374;DHT22;15616;40.148;-102.718;2022-08-01T11:49:43;25.70;53.60
28374;DHT22;15616;40.148;-102.718;2022-08-01T11:52:15;25.70;53.60
28374;DHT22;15616;40.148;-102.718;2022-08-01T11:54:47;25.60;53.60
28374;DHT22;15616;40.148;-102.718;2022-08-01T11:57:17;25.70;53.60
28374;DHT22;15616;40.148;-102.718;2022-08-01T11:59:48;25.70;53.50
28374;DHT22;15616;40.148;-102.718;2022-08-01T12:02:23;25.70;53.50
28374;DHT22;15616;40.148;-102.718;2022-08-01T12:07:26;25.70;53.40
28374;DHT22;15616;40.148;-102.718;2022-08-01T12:10:08;25.70;53.40
28374;DHT22;15616;40.148;-102.718;2022-08-01T12:12:35;25.70;53.30
28374;DHT22;15616;40.148;-102.718;2022-08-01T12:15:07;25.70;53.30
28374;DHT22;15616;40.148;-102.718;2022-08-01T12:17:45;25.70;53.30
28374;DHT22;15616;40.148;-102.718;2022-08-01T12:20:19;25.70;53.20
28374;DHT22;15616;40.148;-102.718;2022-08-01T12:22:45;25.70;53.20
28374;DHT22;15616;40.148;-102.718;2022-08-01T12:25:14;25.70;53.20
28374;DHT22;15616;40.148;-102.718;2022-08-01T12:27:42;25.70;53.10
28374;DHT22;15616;40.148;-102.718;2022-08-01T12:30:10;25.80;53.10
28374;DHT22;15616;40.148;-102.718;2022-08-01T12:32:38;25.80;53.00
28374;DHT22;15616;40.148;-102.718;2022-08-01T12:35:24;25.80;52.90
28374;DHT22;15616;40.148;-102.718;2022-08-01T12:38:02;25.90;52.80
28374;DHT22;15616;40.148;-102.718;2022-08-01T12:40:34;25.80;52.80
28374;DHT22;15616;40.148;-102.718;2022-08-01T12:43:05;25.80;52.90
28374;DHT22;15616;40.148;-102.718;2022-08-01T12:45:35;25.90;52.90
28374;DHT22;15616;40.148;-102.718;2022-08-01T12:48:08;25.80;52.80
28374;DHT22;15616;40.148;-102.718;2022-08-01T12:50:37;25.90;52.70
28374;DHT22;15616;40.148;-102.718;2022-08-01T12:53:04;25.90;52.70
28374;DHT22;15616;40.148;-102.718;2022-08-01T12:55:30;25.90;52.70
28374;DHT22;15616;40.148;-102.718;2022-08-01T12:58:10;25.90;52.70
28374;DHT22;15616;40.148;-102.718;2022-08-01T13:00:39;25.90;52.60
28374;DHT22;15616;40.148;-102.718;2022-08-01T13:03:08;25.90;52.60
28374;DHT22;15616;40.148;-102.718;2022-08-01T13:05:45;25.90;52.60
28374;DHT22;15616;40.148;-102.718;2022-08-01T13:08:17;25.90;52.50
28374;DHT22;15616;40.148;-102.718;2022-08-01T13:10:44;25.90;52.50
28374;DHT22;15616;40.148;-102.718;2022-08-01T13:13:11;25.90;52.40
28374;DHT22;15616;40.148;-102.718;2022-08-01T13:15:39;25.90;52.30
28374;DHT22;15616;40.148;-102.718;2022-08-01T13:18:34;25.90;52.30
28374;DHT22;15616;40.148;-102.718;2022-08-01T13:21:13;25.90;52.10
28374;DHT22;15616;40.148;-102.718;2022-08-01T13:24:03;26.00;52.20
28374;DHT22;15616;40.148;-102.718;2022-08-01T13:29:15;26.00;52.00
28374;DHT22;15616;40.148;-102.718;2022-08-01T13:31:42;26.00;52.10
28374;DHT22;15616;40.148;-102.718;2022-08-01T13:34:09;25.90;52.00
28374;DHT22;15616;40.148;-102.718;2022-08-01T13:36:36;25.90;51.90
28374;DHT22;15616;40.148;-102.718;2022-08-01T13:39:03;26.00;52.00
28374;DHT22;15616;40.148;-102.718;2022-08-01T13:41:48;26.00;52.00
28374;DHT22;15616;40.148;-102.718;2022-08-01T13:44:14;26.00;52.70
28374;DHT22;15616;40.148;-102.718;2022-08-01T13:46:42;26.00;51.80
28374;DHT22;15616;40.148;-102.718;2022-08-01T13:49:09;26.00;51.70
28374;DHT22;15616;40.148;-102.718;2022-08-01T13:51:36;26.00;51.70
28374;DHT22;15616;40.148;-102.718;2022-08-01T13:54:03;25.90;51.60
28374;DHT22;15616;40.148;-102.718;2022-08-01T13:56:29;26.00;51.70
28374;DHT22;15616;40.148;-102.718;2022-08-01T13:58:56;26.00;51.70
28374;DHT22;15616;40.148;-102.718;2022-08-01T14:01:23;26.00;51.60
28374;DHT22;15616;40.148;-102.718;2022-08-01T14:03:50;26.00;51.60
28374;DHT22;15616;40.148;-102.718;2022-08-01T14:06:17;26.00;51.50
28374;DHT22;15616;40.148;-102.718;2022-08-01T14:08:44;26.10;51.50
28374;DHT22;15616;40.148;-102.718;2022-08-01T14:11:11;26.10;51.50
28374;DHT22;15616;40.148;-102.718;2022-08-01T14:13:37;26.10;51.50
28374;DHT22;15616;40.148;-102.718;2022-08-01T14:16:05;26.00;51.30
28374;DHT22;15616;40.148;-102.718;2022-08-01T14:18:31;26.10;51.30
28374;DHT22;15616;40.148;-102.718;2022-08-01T14:20:58;26.10;51.20
28374;DHT22;15616;40.148;-102.718;2022-08-01T14:23:24;26.10;51.20
28374;DHT22;15616;40.148;-102.718;2022-08-01T14:25:49;26.10;51.20
28374;DHT22;15616;40.148;-102.718;2022-08-01T14:28:16;26.10;51.10
28374;DHT22;15616;40.148;-102.718;2022-08-01T14:30:42;26.10;51.20
28374;DHT22;15616;40.148;-102.718;2022-08-01T14:33:09;26.10;51.10
28374;DHT22;15616;40.148;-102.718;2022-08-01T14:35:35;26.10;51.20
28374;DHT22;15616;40.148;-102.718;2022-08-01T14:38:02;26.10;51.20
28374;DHT22;15616;40.148;-102.718;2022-08-01T14:40:28;26.10;51.20
28374;DHT22;15616;40.148;-102.718;2022-08-01T14:42:54;26.10;51.10
28374;DHT22;15616;40.148;-102.718;2022-08-01T14:45:20;26.10;51.10
28374;DHT22;15616;40.148;-102.718;2022-08-01T14:47:46;26.20;51.10
28374;DHT22;15616;40.148;-102.718;2022-08-01T14:50:14;26.20;51.10
28374;DHT22;15616;40.148;-102.718;2022-08-01T14:52:41;26.20;51.00
28374;DHT22;15616;40.148;-102.718;2022-08-01T14:55:09;26.20;50.90
28374;DHT22;15616;40.148;-102.718;2022-08-01T14:57:37;26.30;50.80
28374;DHT22;15616;40.148;-102.718;2022-08-01T15:00:06;26.30;50.70
28374;DHT22;15616;40.148;-102.718;2022-08-01T15:02:32;26.30;50.60
28374;DHT22;15616;40.148;-102.718;2022-08-01T15:04:58;26.30;50.50
28374;DHT22;15616;40.148;-102.718;2022-08-01T15:07:24;26.30;50.50
28374;DHT22;15616;40.148;-102.718;2022-08-01T15:09:50;26.30;50.60
28374;DHT22;15616;40.148;-102.718;2022-08-01T15:12:16;26.40;50.30
28374;DHT22;15616;40.148;-102.718;2022-08-01T15:14:42;26.40;50.20
28374;DHT22;15616;40.148;-102.718;2022-08-01T15:19:48;26.80;49.70
28374;DHT22;15616;40.148;-102.718;2022-08-01T15:22:15;26.70;49.60
28374;DHT22;15616;40.148;-102.718;2022-08-01T15:24:42;26.70;49.60
28374;DHT22;15616;40.148;-102.718;2022-08-01T15:27:08;26.60;49.60
28374;DHT22;15616;40.148;-102.718;2022-08-01T15:29:34;26.50;49.60
28374;DHT22;15616;40.148;-102.718;2022-08-01T15:32:02;26.50;49.70
28374;DHT22;15616;40.148;-102.718;2022-08-01T15:34:29;26.40;49.80